Time;durP1;ratioP1;P1;durP2;ratioP2;P2;SDS_P1;SDS_P2;PMS_P1;PMS_P2;Temp;Humidity;BMP_temperature;BMP_pressure;BME280_temperature;BME280_humidity;BME280_pressure;Samples;Min_cycle;Max_cycle;Signal;HPM_P1;HPM_P2
2023/08/03 00:01:55;;;;;;;4.57;1.75;;;15.40;99.90;;;;;;5044158;28;20102;-70
2023/08/03 00:04:20;;;;;;;4.95;1.77;;;15.20;99.90;;;;;;5046051;28;20112;-70
2023/08/03 00:06:46;;;;;;;8.15;2.33;;;14.90;99.90;;;;;;5040611;28;20071;-70
2023/08/03 00:09:11;;;;;;;5.38;2.10;;;15.50;99.90;;;;;;5031552;28;20100;-70
2023/08/03 00:11:37;;;;;;;8.27;2.22;;;15.40;99.90;;;;;;5047122;28;20341;-72
2023/08/03 00:14:03;;;;;;;5.40;2.17;;;15.30;99.90;;;;;;5049232;28;20491;-71
2023/08/03 00:16:28;;;;;;;5.35;2.10;;;15.00;99.90;;;;;;5035494;28;20845;-73
2023/08/03 00:18:54;;;;;;;8.05;2.30;;;15.50;99.90;;;;;;5022599;28;20042;-68
2023/08/03 00:21:19;;;;;;;6.90;2.47;;;14.80;99.90;;;;;;5047354;28;20040;-69
2023/08/03 00:23:45;;;;;;;7.82;2.45;;;15.00;99.90;;;;;;5027884;28;20042;-70
2023/08/03 00:26:10;;;;;;;4.32;2.13;;;15.10;99.90;;;;;;5032833;28;20038;-70
2023/08/03 00:28:36;;;;;;;8.27;2.42;;;15.00;99.90;;;;;;5034207;28;20488;-71
2023/08/03 00:31:02;;;;;;;8.10;2.38;;;15.30;99.90;;;;;;5045795;28;20788;-71
2023/08/03 00:33:27;;;;;;;4.75;2.20;;;14.90;99.90;;;;;;5028170;28;20452;-71
2023/08/03 00:35:53;;;;;;;6.10;1.80;;;14.90;99.90;;;;;;5043966;28;20078;-71
2023/08/03 00:38:18;;;;;;;6.50;2.28;;;15.10;99.90;;;;;;5011996;28;20037;-70
2023/08/03 00:40:44;;;;;;;5.75;2.20;;;15.00;99.90;;;;;;5056306;28;20245;-71
2023/08/03 00:43:09;;;;;;;9.30;2.00;;;15.00;99.90;;;;;;5036725;28;20057;-72
2023/08/03 00:45:35;;;;;;;6.78;2.40;;;14.90;99.90;;;;;;5034436;28;20065;-70
2023/08/03 00:48:01;;;;;;;5.53;2.40;;;15.30;99.90;;;;;;5046965;28;20045;-69
2023/08/03 00:50:26;;;;;;;6.88;2.22;;;15.20;99.90;;;;;;5025094;28;20118;-70
2023/08/03 00:52:52;;;;;;;4.57;2.13;;;15.00;99.90;;;;;;5039479;28;20162;-69
2023/08/03 00:55:18;;;;;;;6.05;1.85;;;15.10;99.90;;;;;;5012710;28;20041;-69
2023/08/03 00:57:43;;;;;;;5.22;2.10;;;15.10;99.90;;;;;;5029041;28;20409;-68
2023/08/03 01:00:09;;;;;;;9.07;2.15;;;15.60;99.90;;;;;;5044906;28;20035;-69
2023/08/03 01:02:35;;;;;;;8.27;2.17;;;15.40;99.90;;;;;;5036468;28;20787;-69
2023/08/03 01:05:01;;;;;;;3.33;1.65;;;15.10;99.90;;;;;;5035166;28;20029;-68
2023/08/03 01:07:26;;;;;;;5.97;1.92;;;15.50;99.90;;;;;;5041691;28;20040;-69
2023/08/03 01:09:52;;;;;;;6.57;1.90;;;15.50;99.90;;;;;;5045886;28;20049;-69
2023/08/03 01:12:18;;;;;;;5.10;1.80;;;15.40;99.90;;;;;;5044213;28;20041;-68
2023/08/03 01:14:44;;;;;;;5.80;1.70;;;15.40;99.90;;;;;;5035539;28;20041;-69
2023/08/03 01:17:10;;;;;;;5.57;2.00;;;15.10;99.90;;;;;;5030047;28;20041;-70
2023/08/03 01:19:36;;;;;;;6.65;1.75;;;15.40;99.90;;;;;;5034212;28;20564;-72
2023/08/03 01:22:03;;;;;;;5.10;1.50;;;15.40;99.90;;;;;;5039612;28;20116;-70
2023/08/03 01:24:29;;;;;;;2.45;1.50;;;15.00;99.90;;;;;;5037656;28;20047;-68
2023/08/03 01:27:02;;;;;;;3.03;1.30;;;15.20;99.90;;;;;;5045447;28;20050;-68
2023/08/03 01:29:27;;;;;;;2.60;1.42;;;15.00;99.90;;;;;;5047650;28;20926;-69
2023/08/03 01:31:56;;;;;;;5.13;1.45;;;15.60;99.90;;;;;;5037594;28;20049;-68
2023/08/03 01:34:23;;;;;;;1.65;1.20;;;15.00;99.90;;;;;;5050114;28;20484;-67
2023/08/03 01:36:49;;;;;;;3.80;1.50;;;15.70;99.90;;;;;;5042307;28;20041;-66
2023/08/03 01:39:15;;;;;;;4.43;1.42;;;15.00;99.90;;;;;;5044876;28;20338;-68
2023/08/03 01:41:42;;;;;;;2.25;1.25;;;15.10;99.90;;;;;;5029146;28;20111;-68
2023/08/03 01:44:17;;;;;;;4.28;1.40;;;15.60;99.90;;;;;;5041754;28;20454;-69
2023/08/03 01:46:42;;;;;;;3.05;1.40;;;15.10;99.90;;;;;;5045527;28;20369;-68
2023/08/03 01:49:08;;;;;;;5.30;1.35;;;15.60;99.90;;;;;;5032711;28;20038;-68
2023/08/03 01:51:33;;;;;;;3.25;1.50;;;15.60;99.90;;;;;;5057090;28;20092;-68
2023/08/03 01:53:59;;;;;;;5.13;1.50;;;15.40;99.90;;;;;;5026273;28;20090;-68
2023/08/03 01:56:25;;;;;;;4.35;1.50;;;15.30;99.90;;;;;;5027222;28;20406;-68
2023/08/03 01:58:50;;;;;;;4.68;1.20;;;15.20;99.90;;;;;;5035056;28;20072;-69
2023/08/03 02:01:16;;;;;;;3.40;1.50;;;15.00;99.90;;;;;;5034514;28;20033;-67
2023/08/03 02:03:41;;;;;;;4.22;1.55;;;15.20;99.90;;;;;;5044608;28;20040;-68
2023/08/03 02:06:07;;;;;;;5.05;1.60;;;15.60;99.90;;;;;;5041141;28;20045;-68
2023/08/03 02:08:32;;;;;;;1.83;1.38;;;15.20;99.90;;;;;;5036022;28;20759;-68
2023/08/03 02:10:58;;;;;;;4.60;1.45;;;15.00;99.90;;;;;;5039729;28;20156;-68
2023/08/03 02:13:24;;;;;;;2.88;1.48;;;15.60;99.90;;;;;;5036451;28;20041;-68
2023/08/03 02:15:49;;;;;;;2.78;1.42;;;15.60;99.90;;;;;;5018365;28;20083;-67
2023/08/03 02:18:15;;;;;;;3.47;1.58;;;15.20;99.90;;;;;;5053384;28;20330;-67
2023/08/03 02:20:40;;;;;;;2.42;1.40;;;15.20;99.90;;;;;;5039379;28;20488;-68
2023/08/03 02:23:06;;;;;;;5.18;1.50;;;15.40;99.90;;;;;;5038932;28;20045;-67
2023/08/03 02:25:31;;;;;;;4.72;1.63;;;15.70;99.90;;;;;;5034655;28;20452;-69
2023/08/03 02:27:57;;;;;;;3.83;1.52;;;15.50;99.90;;;;;;5034576;28;20033;-69
2023/08/03 02:30:23;;;;;;;2.10;1.70;;;15.10;99.90;;;;;;5056637;28;20117;-68
2023/08/03 02:32:48;;;;;;;4.15;1.60;;;15.10;99.90;;;;;;5030625;28;20098;-69
2023/08/03 02:35:14;;;;;;;4.85;1.88;;;15.40;99.90;;;;;;5046166;28;20837;-69
2023/08/03 02:37:39;;;;;;;3.22;1.70;;;15.70;99.90;;;;;;5038035;28;20041;-69
2023/08/03 02:40:08;;;;;;;2.78;1.80;;;15.60;99.90;;;;;;5030615;28;20049;-67
2023/08/03 02:42:34;;;;;;;3.33;2.10;;;15.30;99.90;;;;;;5026870;28;20111;-68
2023/08/03 02:45:00;;;;;;;5.93;2.05;;;15.20;99.90;;;;;;5040592;28;20104;-68
2023/08/03 02:47:25;;;;;;;2.85;1.80;;;15.50;99.90;;;;;;5026851;28;20037;-68
2023/08/03 02:49:51;;;;;;;4.18;2.10;;;15.70;99.90;;;;;;5041694;28;20039;-67
2023/08/03 02:52:17;;;;;;;3.90;2.00;;;15.20;99.90;;;;;;5035505;28;20049;-67
2023/08/03 02:54:42;;;;;;;3.70;2.20;;;15.10;99.90;;;;;;5038941;28;20048;-67
2023/08/03 02:57:08;;;;;;;3.42;1.92;;;15.20;99.90;;;;;;5028942;28;20042;-68
2023/08/03 02:59:33;;;;;;;3.80;2.08;;;15.50;99.90;;;;;;5037599;28;20507;-67
2023/08/03 03:01:59;;;;;;;3.35;2.13;;;15.30;99.90;;;;;;5049838;28;20057;-67
2023/08/03 03:04:24;;;;;;;21.45;2.83;;;15.70;99.90;;;;;;5041690;28;20051;-67
2023/08/03 03:06:50;;;;;;;9.85;2.40;;;15.50;99.90;;;;;;5036609;28;20052;-68
2023/08/03 03:09:15;;;;;;;3.05;2.15;;;15.60;99.90;;;;;;5024741;28;20043;-67
2023/08/03 03:11:41;;;;;;;4.22;2.00;;;15.10;99.90;;;;;;5033172;28;20461;-68
2023/08/03 03:14:07;;;;;;;4.43;2.00;;;15.80;99.90;;;;;;5016529;28;20119;-67
2023/08/03 03:16:32;;;;;;;5.93;2.17;;;15.60;99.90;;;;;;5036756;28;20353;-69
2023/08/03 03:18:58;;;;;;;3.80;2.42;;;15.70;99.90;;;;;;5039404;28;20448;-69
2023/08/03 03:21:23;;;;;;;5.32;2.63;;;15.40;99.90;;;;;;5041440;28;20611;-70
2023/08/03 03:23:49;;;;;;;6.60;2.55;;;15.80;99.90;;;;;;5025770;28;20068;-69
2023/08/03 03:26:14;;;;;;;5.63;2.70;;;15.10;99.90;;;;;;5026972;28;20135;-69
2023/08/03 03:28:41;;;;;;;8.27;3.30;;;15.40;99.90;;;;;;5036391;28;20041;-68
2023/08/03 03:31:07;;;;;;;6.07;2.50;;;15.60;99.90;;;;;;5035156;28;20334;-68
2023/08/03 03:33:32;;;;;;;7.53;2.92;;;15.50;99.90;;;;;;5036981;28;20051;-68
2023/08/03 03:35:58;;;;;;;7.05;3.50;;;15.40;99.90;;;;;;5042575;28;20075;-68
2023/08/03 03:38:23;;;;;;;5.63;3.47;;;15.30;99.90;;;;;;5046722;28;20772;-68
2023/08/03 03:40:49;;;;;;;9.23;4.00;;;15.90;99.90;;;;;;5042485;28;20378;-69
2023/08/03 03:43:14;;;;;;;9.93;4.60;;;15.30;99.90;;;;;;5042825;28;20077;-69
2023/08/03 03:45:40;;;;;;;10.85;5.05;;;15.20;99.90;;;;;;5031279;28;20036;-68
2023/08/03 03:48:05;;;;;;;12.55;4.90;;;15.90;99.90;;;;;;5030234;28;20045;-67
2023/08/03 03:50:31;;;;;;;20.05;5.50;;;15.50;99.90;;;;;;5041786;28;20057;-69
2023/08/03 03:52:57;;;;;;;11.35;5.20;;;15.90;99.90;;;;;;5050986;28;20056;-68
2023/08/03 03:55:22;;;;;;;13.95;5.47;;;15.70;99.90;;;;;;5033738;28;20321;-68
2023/08/03 03:57:48;;;;;;;17.92;6.00;;;15.50;99.90;;;;;;5037223;28;20043;-69
2023/08/03 04:00:14;;;;;;;14.07;5.57;;;15.80;99.90;;;;;;5043528;28;20119;-68
2023/08/03 04:02:39;;;;;;;17.83;6.55;;;15.70;99.90;;;;;;5046135;28;20073;-68
2023/08/03 04:05:05;;;;;;;10.32;5.80;;;15.70;99.90;;;;;;5040030;28;20043;-68
2023/08/03 04:07:30;;;;;;;12.73;5.78;;;15.80;99.90;;;;;;5038331;28;20064;-68
2023/08/03 04:09:56;;;;;;;13.48;5.53;;;15.90;99.90;;;;;;5036651;28;20048;-69
2023/08/03 04:12:21;;;;;;;21.40;6.90;;;15.20;99.90;;;;;;5028374;28;20063;-67
2023/08/03 04:14:47;;;;;;;12.43;6.85;;;15.20;99.90;;;;;;5042967;28;20094;-68
2023/08/03 04:17:12;;;;;;;17.02;6.68;;;15.50;99.90;;;;;;5040358;28;20539;-68
2023/08/03 04:19:38;;;;;;;14.02;6.85;;;15.70;99.90;;;;;;5049192;28;20465;-68
2023/08/03 04:22:04;;;;;;;16.60;6.75;;;15.40;99.90;;;;;;5033808;28;20072;-68
2023/08/03 04:24:30;;;;;;;15.98;6.78;;;15.80;99.90;;;;;;5046203;28;20048;-67
2023/08/03 04:26:56;;;;;;;18.27;6.63;;;15.80;99.90;;;;;;5032516;28;20049;-68
2023/08/03 04:29:21;;;;;;;14.07;6.13;;;15.40;99.90;;;;;;5037779;28;20045;-68
2023/08/03 04:31:47;;;;;;;18.48;6.15;;;15.50;99.90;;;;;;5046130;28;20117;-67
2023/08/03 04:34:13;;;;;;;16.95;5.68;;;15.60;99.90;;;;;;5012540;28;20442;-68
2023/08/03 04:36:39;;;;;;;16.02;5.88;;;15.30;99.90;;;;;;5029121;28;20404;-68
2023/08/03 04:39:05;;;;;;;19.50;5.45;;;15.20;99.90;;;;;;5037777;28;20045;-67
2023/08/03 04:41:31;;;;;;;18.17;5.60;;;15.50;99.90;;;;;;5042799;28;20132;-66
2023/08/03 04:43:56;;;;;;;17.55;5.28;;;15.40;99.90;;;;;;5042168;28;20044;-67
2023/08/03 04:46:22;;;;;;;15.73;5.25;;;15.40;99.90;;;;;;5015698;28;20047;-67
2023/08/03 04:48:48;;;;;;;16.90;5.32;;;15.30;99.90;;;;;;5045631;28;20524;-71
2023/08/03 04:51:13;;;;;;;22.75;5.95;;;15.90;99.90;;;;;;5029617;28;20061;-67
2023/08/03 04:53:39;;;;;;;18.27;5.45;;;16.00;99.90;;;;;;5032047;28;20144;-68
2023/08/03 04:56:05;;;;;;;19.60;5.70;;;15.30;99.90;;;;;;5033008;28;20120;-67
2023/08/03 04:58:31;;;;;;;19.52;5.35;;;15.30;99.90;;;;;;5024017;28;20030;-68
2023/08/03 05:00:56;;;;;;;18.33;5.63;;;15.70;99.90;;;;;;5030008;28;20453;-67
2023/08/03 05:03:22;;;;;;;17.98;4.85;;;15.40;99.90;;;;;;5046327;28;20367;-67
2023/08/03 05:05:47;;;;;;;18.23;4.82;;;15.80;99.90;;;;;;5032257;28;20104;-67
2023/08/03 05:08:13;;;;;;;17.45;5.32;;;15.80;99.90;;;;;;5036938;28;20045;-68
2023/08/03 05:10:38;;;;;;;9.90;3.97;;;15.40;99.90;;;;;;5023794;28;20033;-67
2023/08/03 05:13:04;;;;;;;19.30;4.65;;;15.50;99.90;;;;;;5037751;28;20663;-67
2023/08/03 05:15:30;;;;;;;12.60;4.03;;;15.40;99.90;;;;;;5061220;28;20503;-67
2023/08/03 05:17:55;;;;;;;13.32;3.58;;;15.60;99.90;;;;;;5035785;28;20092;-67
2023/08/03 05:20:21;;;;;;;15.18;3.80;;;15.40;99.90;;;;;;5045054;28;20053;-66
2023/08/03 05:22:46;;;;;;;18.92;4.78;;;15.50;99.90;;;;;;5036789;28;20780;-66
2023/08/03 05:25:12;;;;;;;15.23;4.20;;;15.50;99.90;;;;;;5046452;28;21078;-67
2023/08/03 05:27:38;;;;;;;15.90;3.72;;;15.50;99.90;;;;;;5032079;28;20386;-67
2023/08/03 05:30:05;;;;;;;16.00;4.15;;;16.20;99.90;;;;;;5046672;28;20111;-66
2023/08/03 05:32:31;;;;;;;17.13;4.20;;;15.80;99.90;;;;;;5027625;28;20041;-67
2023/08/03 05:34:57;;;;;;;13.40;4.03;;;15.70;99.90;;;;;;5036568;28;20041;-66
2023/08/03 05:37:22;;;;;;;12.00;4.18;;;15.80;99.90;;;;;;5043333;28;20059;-67
2023/08/03 05:39:48;;;;;;;14.23;3.75;;;16.10;99.90;;;;;;5031641;28;20032;-67
2023/08/03 05:42:16;;;;;;;11.25;4.00;;;15.90;99.90;;;;;;5042513;28;20036;-66
2023/08/03 05:44:42;;;;;;;14.00;4.00;;;16.10;99.90;;;;;;5029111;28;20095;-66
2023/08/03 05:47:11;;;;;;;13.20;3.85;;;15.90;99.90;;;;;;5022260;28;20064;-67
2023/08/03 05:49:37;;;;;;;16.65;4.25;;;15.90;99.90;;;;;;5054695;28;20047;-67
2023/08/03 05:52:03;;;;;;;12.32;4.07;;;16.20;99.90;;;;;;5034572;28;20049;-67
2023/08/03 05:54:29;;;;;;;12.13;4.22;;;16.20;99.90;;;;;;5034082;28;20060;-67
2023/08/03 05:56:55;;;;;;;10.73;3.80;;;15.60;99.90;;;;;;5052253;28;20388;-67
2023/08/03 05:59:24;;;;;;;14.90;4.28;;;15.60;99.90;;;;;;5042970;28;20419;-67
2023/08/03 06:01:51;;;;;;;12.30;3.80;;;15.60;99.90;;;;;;5039775;28;20508;-67
2023/08/03 06:04:18;;;;;;;8.73;3.97;;;15.70;99.90;;;;;;5029346;28;20033;-67
2023/08/03 06:06:44;;;;;;;19.48;5.53;;;16.20;99.90;;;;;;5043778;28;20061;-66
2023/08/03 06:09:11;;;;;;;14.73;4.68;;;16.10;99.90;;;;;;5051004;28;20448;-67
2023/08/03 06:11:38;;;;;;;13.25;4.32;;;16.00;99.90;;;;;;5045966;28;20076;-68
2023/08/03 06:14:05;;;;;;;17.30;4.28;;;16.00;99.90;;;;;;5033940;28;20048;-67
2023/08/03 06:16:30;;;;;;;9.18;3.92;;;16.40;99.90;;;;;;5033962;28;20045;-67
2023/08/03 06:18:59;;;;;;;11.65;4.40;;;16.60;99.90;;;;;;5039357;28;20400;-67
2023/08/03 06:21:26;;;;;;;13.20;4.15;;;16.40;99.90;;;;;;5042747;28;20507;-67
2023/08/03 06:23:54;;;;;;;13.10;4.50;;;15.90;99.90;;;;;;5034721;28;20154;-67
2023/08/03 06:26:21;;;;;;;14.15;4.43;;;16.30;99.90;;;;;;5046002;28;20099;-68
2023/08/03 06:28:49;;;;;;;10.48;4.32;;;16.30;99.90;;;;;;5035847;28;20466;-66
2023/08/03 06:31:15;;;;;;;14.48;4.63;;;16.10;99.90;;;;;;5041358;28;20495;-67
2023/08/03 06:33:43;;;;;;;15.30;4.43;;;16.30;99.90;;;;;;5048697;28;20033;-67
2023/08/03 06:36:12;;;;;;;14.23;4.60;;;16.40;99.90;;;;;;5026637;28;20424;-67
2023/08/03 06:38:38;;;;;;;13.55;4.07;;;16.60;99.90;;;;;;5039597;28;20099;-67
2023/08/03 06:41:04;;;;;;;14.00;4.13;;;16.50;99.90;;;;;;5040591;28;20053;-67
2023/08/03 06:43:30;;;;;;;10.32;4.65;;;16.10;99.90;;;;;;5046601;28;20064;-67
2023/08/03 06:45:56;;;;;;;14.45;4.72;;;16.80;99.90;;;;;;5047776;28;20052;-67
2023/08/03 06:48:22;;;;;;;9.65;4.68;;;16.90;99.90;;;;;;5044065;28;20476;-66
2023/08/03 06:50:48;;;;;;;17.88;5.18;;;16.30;99.90;;;;;;5049893;28;20055;-67
2023/08/03 06:53:14;;;;;;;9.63;5.03;;;16.90;99.90;;;;;;5049447;28;20056;-67
2023/08/03 06:55:40;;;;;;;13.27;4.55;;;17.00;99.90;;;;;;5034729;28;20048;-67
2023/08/03 06:58:05;;;;;;;13.95;4.75;;;16.80;99.90;;;;;;5027769;28;20477;-67
2023/08/03 07:00:31;;;;;;;10.68;4.40;;;16.90;99.90;;;;;;5032110;28;20042;-67
2023/08/03 07:02:57;;;;;;;7.90;4.45;;;16.70;99.90;;;;;;5028999;28;20043;-67
2023/08/03 07:05:22;;;;;;;10.65;4.50;;;16.60;99.90;;;;;;5040246;28;20107;-67
2023/08/03 07:07:48;;;;;;;11.63;4.35;;;16.80;99.90;;;;;;5042929;28;20426;-67
2023/08/03 07:10:13;;;;;;;14.13;3.97;;;17.00;99.90;;;;;;5041247;28;20063;-66
2023/08/03 07:12:39;;;;;;;11.25;4.53;;;16.80;99.90;;;;;;5043833;28;20041;-67
2023/08/03 07:15:05;;;;;;;9.68;4.20;;;17.20;99.90;;;;;;5047152;28;20041;-67
2023/08/03 07:17:31;;;;;;;11.10;3.85;;;16.90;99.90;;;;;;5033644;28;20117;-67
2023/08/03 07:19:57;;;;;;;13.55;3.70;;;17.80;99.90;;;;;;5043677;28;20045;-67
2023/08/03 07:22:24;;;;;;;7.50;3.20;;;17.40;99.90;;;;;;5037449;28;20029;-67
2023/08/03 07:24:50;;;;;;;5.43;2.63;;;17.60;99.90;;;;;;5046990;28;20115;-68
2023/08/03 07:27:15;;;;;;;5.50;2.60;;;17.50;99.90;;;;;;5050957;28;20116;-67
2023/08/03 07:29:42;;;;;;;5.28;2.33;;;17.40;99.90;;;;;;5050113;28;20087;-67
2023/08/03 07:32:08;;;;;;;7.82;2.40;;;17.20;99.90;;;;;;5051186;28;20087;-67
2023/08/03 07:34:34;;;;;;;7.13;2.47;;;17.60;99.90;;;;;;5043904;28;20044;-68
2023/08/03 07:37:03;;;;;;;5.78;1.90;;;17.60;99.90;;;;;;5017961;28;20129;-68
2023/08/03 07:39:29;;;;;;;7.00;2.42;;;17.70;99.90;;;;;;5047394;28;20041;-67
2023/08/03 07:41:55;;;;;;;4.80;1.60;;;17.60;99.90;;;;;;5045025;28;20479;-66
2023/08/03 07:44:21;;;;;;;5.80;2.00;;;17.50;99.90;;;;;;5029617;28;20033;-68
2023/08/03 07:46:47;;;;;;;4.18;1.77;;;17.40;99.90;;;;;;5043380;28;20052;-68
2023/08/03 07:49:13;;;;;;;5.65;2.20;;;17.80;99.90;;;;;;5052576;28;20113;-68
2023/08/03 07:51:39;;;;;;;2.10;1.75;;;18.00;99.90;;;;;;5043653;28;20137;-69
2023/08/03 07:54:05;;;;;;;3.55;1.80;;;17.80;99.90;;;;;;5020866;28;20040;-68
2023/08/03 07:56:31;;;;;;;4.15;1.80;;;18.00;99.90;;;;;;5044577;28;20390;-68
2023/08/03 07:58:57;;;;;;;4.07;1.73;;;18.30;99.90;;;;;;5041418;28;20037;-68
2023/08/03 08:01:23;;;;;;;4.32;1.67;;;18.30;99.90;;;;;;5049020;28;20388;-67
2023/08/03 08:03:49;;;;;;;3.75;1.70;;;18.50;99.90;;;;;;5042200;28;20118;-68
2023/08/03 08:06:19;;;;;;;2.30;1.42;;;18.70;99.90;;;;;;5041430;28;20119;-68
2023/08/03 08:08:47;;;;;;;3.00;1.23;;;18.40;99.90;;;;;;5041246;28;20045;-67
2023/08/03 08:11:14;;;;;;;7.63;1.27;;;18.40;99.90;;;;;;5032462;28;20037;-68
2023/08/03 08:13:41;;;;;;;3.08;1.23;;;18.50;99.90;;;;;;5052003;28;20036;-69
2023/08/03 08:16:09;;;;;;;2.55;0.90;;;19.00;99.90;;;;;;5045025;28;20064;-69
2023/08/03 08:18:36;;;;;;;1.38;0.90;;;19.20;99.90;;;;;;5049345;28;20120;-68
2023/08/03 08:21:04;;;;;;;2.92;1.25;;;19.50;99.90;;;;;;5047579;28;20041;-71
2023/08/03 08:23:30;;;;;;;3.15;1.00;;;19.50;99.90;;;;;;5045746;28;20108;-69
2023/08/03 08:25:56;;;;;;;1.98;0.98;;;19.40;99.90;;;;;;5046017;28;20591;-70
2023/08/03 08:28:22;;;;;;;1.30;0.65;;;19.30;99.90;;;;;;5054081;28;20037;-70
2023/08/03 08:30:48;;;;;;;1.65;0.90;;;19.30;99.90;;;;;;5061815;28;20047;-69
2023/08/03 08:33:15;;;;;;;2.13;1.00;;;19.60;99.90;;;;;;5049089;28;20459;-71
2023/08/03 08:35:42;;;;;;;2.90;0.90;;;19.90;99.90;;;;;;5035542;28;20040;-71
2023/08/03 08:38:15;;;;;;;1.98;0.68;;;20.20;99.90;;;;;;5037545;28;20048;-71
2023/08/03 08:40:42;;;;;;;3.25;0.80;;;20.60;99.90;;;;;;5031313;28;20101;-71
2023/08/03 08:43:08;;;;;;;2.28;0.55;;;20.80;99.90;;;;;;5032741;28;20559;-70
2023/08/03 08:45:35;;;;;;;1.98;0.60;;;20.90;99.90;;;;;;5044838;28;20045;-72
2023/08/03 08:48:01;;;;;;;3.05;0.50;;;20.70;99.90;;;;;;5028908;28;20045;-71
2023/08/03 08:50:27;;;;;;;1.75;0.50;;;20.50;99.90;;;;;;5029831;28;20132;-72
2023/08/03 08:52:53;;;;;;;2.28;0.75;;;20.40;99.90;;;;;;5043252;28;20127;-72
2023/08/03 08:55:19;;;;;;;1.20;0.50;;;20.10;99.90;;;;;;5046791;28;20190;-70
2023/08/03 08:57:45;;;;;;;3.35;0.90;;;20.40;99.90;;;;;;5035441;28;20563;-74
2023/08/03 09:00:11;;;;;;;2.05;0.55;;;20.90;99.90;;;;;;5028294;28;20036;-75
2023/08/03 09:02:37;;;;;;;2.50;0.68;;;20.90;99.90;;;;;;5031832;28;20098;-70
2023/08/03 09:05:32;;;;;;;1.75;0.60;;;21.40;99.90;;;;;;5029732;28;20687;-69
2023/08/03 09:08:02;;;;;;;2.95;0.50;;;22.00;99.90;;;;;;5034076;28;20048;-74
2023/08/03 09:10:29;;;;;;;0.77;0.40;;;22.50;99.90;;;;;;5032847;28;20045;-73
2023/08/03 09:12:58;;;;;;;2.05;0.60;;;22.50;99.90;;;;;;5042049;28;20642;-76
2023/08/03 09:15:37;;;;;;;2.38;0.40;;;22.80;99.90;;;;;;5029702;28;20463;-75
2023/08/03 09:18:07;;;;;;;2.42;0.55;;;23.10;99.90;;;;;;5069436;28;20044;-74
2023/08/03 09:20:33;;;;;;;2.10;0.60;;;22.70;99.90;;;;;;5056370;28;20045;-67
2023/08/03 09:23:00;;;;;;;3.83;0.70;;;22.70;99.90;;;;;;5043320;28;20045;-73
2023/08/03 09:25:26;;;;;;;2.00;0.63;;;23.30;99.90;;;;;;5036518;28;21156;-70
2023/08/03 09:27:54;;;;;;;2.33;0.60;;;23.50;99.90;;;;;;5040723;28;20089;-73
2023/08/03 09:30:21;;;;;;;2.97;0.75;;;23.50;99.90;;;;;;5019703;28;20510;-71
2023/08/03 09:32:47;;;;;;;1.58;0.47;;;24.00;99.90;;;;;;5041831;28;20657;-72
2023/08/03 09:35:20;;;;;;;1.10;0.40;;;23.90;99.90;;;;;;5055428;28;20036;-69
2023/08/03 09:37:46;;;;;;;2.15;0.77;;;23.20;99.90;;;;;;5051171;28;20071;-74
2023/08/03 09:40:12;;;;;;;1.23;0.50;;;22.80;99.90;;;;;;5040531;28;20123;-76
2023/08/03 09:42:39;;;;;;;2.08;0.65;;;22.60;99.90;;;;;;5043843;28;20056;-77
2023/08/03 09:45:06;;;;;;;1.00;0.40;;;22.10;99.90;;;;;;5040182;28;20045;-74
2023/08/03 09:47:34;;;;;;;2.42;0.50;;;22.30;99.90;;;;;;5057262;28;20079;-72
2023/08/03 09:50:01;;;;;;;4.07;0.77;;;22.10;99.90;;;;;;5037561;28;20060;-74
2023/08/03 09:52:28;;;;;;;1.63;0.52;;;22.20;99.90;;;;;;5043926;28;20128;-71
2023/08/03 09:55:20;;;;;;;3.65;0.60;;;22.50;99.90;;;;;;5040249;28;20040;-74
2023/08/03 09:58:08;;;;;;;3.65;0.85;;;22.70;99.90;;;;;;5031286;28;20498;-73
2023/08/03 10:00:34;;;;;;;2.50;0.63;;;22.50;99.90;;;;;;5040715;28;20047;-75
2023/08/03 10:03:09;;;;;;;2.88;0.73;;;22.60;99.90;;;;;;5035341;28;20073;-72
2023/08/03 10:05:51;;;;;;;5.03;0.40;;;22.20;99.90;;;;;;5044663;28;20044;-72
2023/08/03 10:08:31;;;;;;;2.45;0.77;;;22.10;99.90;;;;;;5044227;28;20071;-73
2023/08/03 10:11:00;;;;;;;1.77;0.50;;;21.90;99.90;;;;;;5023045;28;20045;-73
2023/08/03 10:13:27;;;;;;;2.22;0.80;;;21.60;99.90;;;;;;5035282;28;20049;-72
2023/08/03 10:15:53;;;;;;;2.88;0.80;;;21.40;99.90;;;;;;5041043;28;20646;-68
2023/08/03 10:18:20;;;;;;;1.80;0.68;;;22.50;99.90;;;;;;5032492;28;20049;-73
2023/08/03 10:20:46;;;;;;;1.50;0.50;;;23.70;99.90;;;;;;5067317;28;20110;-72
2023/08/03 10:23:17;;;;;;;2.47;0.93;;;25.00;99.90;;;;;;5041762;28;20071;-70
2023/08/03 10:25:51;;;;;;;2.10;0.50;;;26.20;99.90;;;;;;5061043;28;20326;-71
2023/08/03 10:28:17;;;;;;;5.40;0.90;;;26.80;99.90;;;;;;5031921;28;20037;-73
2023/08/03 10:31:11;;;;;;;6.57;0.70;;;26.30;93.60;;;;;;5065130;28;20079;-73
2023/08/03 10:33:46;;;;;;;1.45;0.55;;;25.40;99.90;;;;;;5033523;28;20041;-71
2023/08/03 10:36:37;;;;;;;3.45;0.80;;;23.60;99.40;;;;;;5060170;28;20303;-72
2023/08/03 10:39:12;;;;;;;2.47;0.90;;;22.80;99.90;;;;;;5053144;28;20045;-71
2023/08/03 10:41:44;;;;;;;4.32;1.30;;;22.20;98.80;;;;;;5047964;28;20081;-71
2023/08/03 10:44:12;;;;;;;2.20;1.23;;;22.00;99.80;;;;;;5036764;28;20036;-72
2023/08/03 10:46:48;;;;;;;3.83;0.90;;;22.20;99.90;;;;;;5030324;28;20450;-72
2023/08/03 10:49:20;;;;;;;3.00;1.00;;;22.40;99.90;;;;;;5033449;28;20381;-74
2023/08/03 10:51:47;;;;;;;4.80;0.80;;;22.60;99.90;;;;;;5046748;28;20201;-71
2023/08/03 10:54:12;;;;;;;1.58;0.90;;;22.70;97.10;;;;;;5040175;28;20408;-73
2023/08/03 10:56:38;;;;;;;4.75;1.10;;;23.00;97.20;;;;;;5055783;28;20041;-66
2023/08/03 10:59:04;;;;;;;2.20;0.98;;;23.10;95.20;;;;;;5035620;28;20435;-74
2023/08/03 11:01:30;;;;;;;2.58;0.70;;;22.80;93.00;;;;;;5052405;28;20048;-71
2023/08/03 11:03:58;;;;;;;3.30;0.75;;;22.30;91.40;;;;;;5050035;28;20476;-71
2023/08/03 11:06:26;;;;;;;6.18;1.10;;;22.40;92.40;;;;;;5049798;28;20080;-72
2023/08/03 11:08:54;;;;;;;6.82;1.05;;;22.20;92.20;;;;;;5045995;28;20045;-72
2023/08/03 11:11:23;;;;;;;3.25;0.88;;;22.30;93.40;;;;;;5048790;28;20472;-72
2023/08/03 11:13:49;;;;;;;4.88;0.95;;;22.40;92.30;;;;;;5042736;28;20049;-71
2023/08/03 11:16:15;;;;;;;4.45;1.38;;;22.40;93.10;;;;;;5047897;28;20044;-71
2023/08/03 11:18:45;;;;;;;1.75;0.60;;;22.50;92.50;;;;;;5036398;28;20039;-73
2023/08/03 11:21:11;;;;;;;2.38;0.70;;;22.50;91.70;;;;;;5046882;28;20132;-71
2023/08/03 11:23:37;;;;;;;2.83;0.73;;;22.90;92.40;;;;;;5053222;28;20053;-69
2023/08/03 11:26:06;;;;;;;1.85;0.70;;;23.20;91.70;;;;;;5051069;28;20400;-72
2023/08/03 11:28:39;;;;;;;1.27;0.73;;;23.40;91.40;;;;;;5059254;28;20067;-71
2023/08/03 11:31:17;;;;;;;2.60;0.70;;;23.70;92.20;;;;;;5045700;28;20558;-73
2023/08/03 11:33:50;;;;;;;1.83;0.90;;;23.70;91.70;;;;;;5033994;28;20060;-68
2023/08/03 11:36:19;;;;;;;5.93;1.25;;;23.70;91.40;;;;;;5054828;28;20049;-71
2023/08/03 11:38:45;;;;;;;3.67;0.97;;;23.70;90.50;;;;;;5018716;28;20114;-71
2023/08/03 11:41:14;;;;;;;2.28;0.63;;;23.60;89.10;;;;;;5047493;28;20041;-71
2023/08/03 11:43:40;;;;;;;1.70;0.80;;;23.80;88.50;;;;;;5050309;28;20363;-71
2023/08/03 11:46:06;;;;;;;3.50;0.93;;;24.00;84.90;;;;;;5046965;28;20135;-71
2023/08/03 11:48:32;;;;;;;2.45;0.77;;;23.90;84.90;;;;;;5071619;28;20051;-72
2023/08/03 11:50:59;;;;;;;1.70;0.70;;;23.60;86.70;;;;;;5053747;28;20361;-70
2023/08/03 11:53:26;;;;;;;3.65;0.80;;;23.20;87.20;;;;;;5047810;28;20045;-70
2023/08/03 11:55:52;;;;;;;3.42;0.85;;;23.20;88.80;;;;;;5052562;28;20433;-71
2023/08/03 11:58:22;;;;;;;3.55;0.80;;;23.00;89.70;;;;;;5034247;28;20472;-72
2023/08/03 12:00:48;;;;;;;4.57;1.02;;;23.50;90.10;;;;;;5046915;28;20460;-69
2023/08/03 12:03:31;;;;;;;6.28;1.17;;;23.80;88.40;;;;;;5038440;28;20034;-71
2023/08/03 12:06:01;;;;;;;2.40;0.88;;;23.90;91.40;;;;;;5045662;28;20060;-70
2023/08/03 12:08:27;;;;;;;4.30;1.35;;;23.60;89.90;;;;;;5016216;28;20113;-70
2023/08/03 12:11:15;;;;;;;3.17;0.80;;;23.60;89.90;;;;;;5039544;28;20036;-71
2023/08/03 12:13:40;;;;;;;2.60;0.80;;;23.40;84.80;;;;;;5058085;28;20095;-72
2023/08/03 12:16:06;;;;;;;2.40;0.60;;;23.10;87.60;;;;;;5046063;28;20052;-68
2023/08/03 12:18:32;;;;;;;2.80;0.77;;;23.10;87.40;;;;;;5037730;28;20073;-72
2023/08/03 12:20:58;;;;;;;1.98;0.70;;;23.20;86.80;;;;;;5040163;28;20055;-71
2023/08/03 12:23:23;;;;;;;2.15;0.60;;;23.60;86.10;;;;;;5041374;28;20037;-72
2023/08/03 12:25:49;;;;;;;2.38;0.63;;;24.10;84.30;;;;;;5030484;28;20156;-71
2023/08/03 12:28:14;;;;;;;1.80;0.68;;;24.20;84.30;;;;;;5036857;28;20135;-67
2023/08/03 12:30:40;;;;;;;1.85;0.65;;;24.30;85.50;;;;;;5033285;28;20136;-70
2023/08/03 12:33:08;;;;;;;2.85;0.68;;;24.30;85.90;;;;;;5053626;28;20380;-72
2023/08/03 12:35:35;;;;;;;2.53;0.47;;;24.00;85.30;;;;;;5038546;28;20053;-72
2023/08/03 12:38:00;;;;;;;2.42;0.50;;;23.90;84.40;;;;;;5044180;28;20044;-70
2023/08/03 12:40:27;;;;;;;6.43;0.75;;;24.00;84.30;;;;;;5060516;28;20161;-71
2023/08/03 12:42:53;;;;;;;4.72;0.85;;;24.70;83.10;;;;;;5065021;28;20491;-68